sensor_id;sensor_type;location;lat;lon;timestamp;P1;durP1;ratioP1;P2;durP2;ratioP2
36351;SDS011;22382;44.768;17.206;2022-10-31T00:01:12;26.48;;;16.30;;
36351;SDS011;22382;44.768;17.206;2022-10-31T00:03:41;28.10;;;16.52;;
36351;SDS011;22382;44.768;17.206;2022-10-31T00:06:08;28.35;;;17.17;;
36351;SDS011;22382;44.768;17.206;2022-10-31T00:08:35;21.17;;;13.43;;
36351;SDS011;22382;44.768;17.206;2022-10-31T00:11:02;19.20;;;11.88;;
36351;SDS011;22382;44.768;17.206;2022-10-31T00:13:29;19.38;;;12.60;;
36351;SDS011;22382;44.768;17.206;2022-10-31T00:15:57;18.70;;;11.20;;
36351;SDS011;22382;44.768;17.206;2022-10-31T00:18:24;19.65;;;11.77;;
36351;SDS011;22382;44.768;17.206;2022-10-31T00:20:58;17.90;;;11.73;;
36351;SDS011;22382;44.768;17.206;2022-10-31T00:23:26;17.40;;;11.82;;
36351;SDS011;22382;44.768;17.206;2022-10-31T00:25:53;18.05;;;11.27;;
36351;SDS011;22382;44.768;17.206;2022-10-31T00:28:21;22.48;;;12.35;;
36351;SDS011;22382;44.768;17.206;2022-10-31T00:30:48;20.05;;;11.70;;
36351;SDS011;22382;44.768;17.206;2022-10-31T00:33:15;17.23;;;11.80;;
36351;SDS011;22382;44.768;17.206;2022-10-31T00:35:42;24.55;;;11.73;;
36351;SDS011;22382;44.768;17.206;2022-10-31T00:38:09;22.50;;;13.27;;
36351;SDS011;22382;44.768;17.206;2022-10-31T00:40:36;22.92;;;14.13;;
36351;SDS011;22382;44.768;17.206;2022-10-31T00:43:03;23.90;;;14.18;;
36351;SDS011;22382;44.768;17.206;2022-10-31T00:45:30;19.90;;;13.07;;
36351;SDS011;22382;44.768;17.206;2022-10-31T00:47:57;20.85;;;11.85;;
36351;SDS011;22382;44.768;17.206;2022-10-31T00:50:24;21.92;;;11.90;;
36351;SDS011;22382;44.768;17.206;2022-10-31T00:52:51;22.65;;;11.35;;
36351;SDS011;22382;44.768;17.206;2022-10-31T00:55:18;16.90;;;10.38;;
36351;SDS011;22382;44.768;17.206;2022-10-31T00:57:46;16.05;;;10.55;;
36351;SDS011;22382;44.768;17.206;2022-10-31T01:00:14;16.15;;;10.05;;
36351;SDS011;22382;44.768;17.206;2022-10-31T01:02:41;16.48;;;10.02;;
36351;SDS011;22382;44.768;17.206;2022-10-31T01:05:09;17.30;;;10.57;;
36351;SDS011;22382;44.768;17.206;2022-10-31T01:07:37;13.70;;;9.25;;
36351;SDS011;22382;44.768;17.206;2022-10-31T01:10:05;19.08;;;9.55;;
36351;SDS011;22382;44.768;17.206;2022-10-31T01:12:39;13.30;;;8.48;;
36351;SDS011;22382;44.768;17.206;2022-10-31T01:15:08;17.20;;;9.27;;
36351;SDS011;22382;44.768;17.206;2022-10-31T01:17:37;16.58;;;9.20;;
36351;SDS011;22382;44.768;17.206;2022-10-31T01:20:06;17.42;;;9.55;;
36351;SDS011;22382;44.768;17.206;2022-10-31T01:22:34;14.90;;;9.25;;
36351;SDS011;22382;44.768;17.206;2022-10-31T01:25:01;24.73;;;10.27;;
36351;SDS011;22382;44.768;17.206;2022-10-31T01:27:29;17.23;;;10.15;;
36351;SDS011;22382;44.768;17.206;2022-10-31T01:29:57;19.30;;;12.85;;
36351;SDS011;22382;44.768;17.206;2022-10-31T01:32:24;21.83;;;13.07;;
36351;SDS011;22382;44.768;17.206;2022-10-31T01:34:55;19.98;;;12.00;;
36351;SDS011;22382;44.768;17.206;2022-10-31T01:37:22;22.58;;;12.02;;
36351;SDS011;22382;44.768;17.206;2022-10-31T01:39:49;20.30;;;13.13;;
36351;SDS011;22382;44.768;17.206;2022-10-31T01:42:18;20.13;;;14.00;;
36351;SDS011;22382;44.768;17.206;2022-10-31T01:44:51;21.30;;;12.93;;
36351;SDS011;22382;44.768;17.206;2022-10-31T01:47:26;21.50;;;12.20;;
36351;SDS011;22382;44.768;17.206;2022-10-31T01:52:56;16.05;;;11.13;;
36351;SDS011;22382;44.768;17.206;2022-10-31T01:55:25;21.88;;;11.45;;
36351;SDS011;22382;44.768;17.206;2022-10-31T01:57:57;21.17;;;11.83;;
36351;SDS011;22382;44.768;17.206;2022-10-31T02:00:30;17.00;;;11.70;;
36351;SDS011;22382;44.768;17.206;2022-10-31T02:02:58;18.90;;;11.18;;
36351;SDS011;22382;44.768;17.206;2022-10-31T02:05:28;16.45;;;10.20;;
36351;SDS011;22382;44.768;17.206;2022-10-31T02:08:02;35.00;;;9.95;;
36351;SDS011;22382;44.768;17.206;2022-10-31T02:10:35;15.52;;;8.55;;
36351;SDS011;22382;44.768;17.206;2022-10-31T02:13:04;15.13;;;9.20;;
36351;SDS011;22382;44.768;17.206;2022-10-31T02:15:33;18.08;;;9.90;;
36351;SDS011;22382;44.768;17.206;2022-10-31T02:18:03;15.90;;;8.80;;
36351;SDS011;22382;44.768;17.206;2022-10-31T02:20:42;20.48;;;9.10;;
36351;SDS011;22382;44.768;17.206;2022-10-31T02:23:33;15.35;;;8.70;;
36351;SDS011;22382;44.768;17.206;2022-10-31T02:31:52;17.50;;;9.70;;
36351;SDS011;22382;44.768;17.206;2022-10-31T02:37:14;18.58;;;9.70;;
36351;SDS011;22382;44.768;17.206;2022-10-31T02:42:46;20.85;;;10.55;;
36351;SDS011;22382;44.768;17.206;2022-10-31T02:47:58;15.75;;;9.27;;
36351;SDS011;22382;44.768;17.206;2022-10-31T02:50:31;18.55;;;10.63;;
36351;SDS011;22382;44.768;17.206;2022-10-31T02:53:01;17.05;;;10.88;;
36351;SDS011;22382;44.768;17.206;2022-10-31T02:57:56;23.67;;;12.98;;
36351;SDS011;22382;44.768;17.206;2022-10-31T03:00:29;20.63;;;13.98;;
36351;SDS011;22382;44.768;17.206;2022-10-31T03:03:25;19.65;;;12.57;;
36351;SDS011;22382;44.768;17.206;2022-10-31T03:06:13;23.95;;;13.43;;
36351;SDS011;22382;44.768;17.206;2022-10-31T03:11:46;20.08;;;12.52;;
36351;SDS011;22382;44.768;17.206;2022-10-31T03:14:31;20.90;;;12.43;;
36351;SDS011;22382;44.768;17.206;2022-10-31T03:17:04;22.17;;;13.13;;
36351;SDS011;22382;44.768;17.206;2022-10-31T03:19:40;20.08;;;12.00;;
36351;SDS011;22382;44.768;17.206;2022-10-31T03:22:30;22.08;;;13.30;;
36351;SDS011;22382;44.768;17.206;2022-10-31T03:25:00;18.33;;;11.85;;
36351;SDS011;22382;44.768;17.206;2022-10-31T03:27:31;18.15;;;11.52;;
36351;SDS011;22382;44.768;17.206;2022-10-31T03:30:03;18.23;;;11.20;;
36351;SDS011;22382;44.768;17.206;2022-10-31T03:32:38;20.67;;;13.15;;
36351;SDS011;22382;44.768;17.206;2022-10-31T03:35:10;27.05;;;15.63;;
36351;SDS011;22382;44.768;17.206;2022-10-31T03:37:42;25.05;;;16.80;;
36351;SDS011;22382;44.768;17.206;2022-10-31T03:40:11;27.15;;;16.58;;
36351;SDS011;22382;44.768;17.206;2022-10-31T03:42:41;30.30;;;17.17;;
36351;SDS011;22382;44.768;17.206;2022-10-31T03:45:14;26.67;;;17.27;;
36351;SDS011;22382;44.768;17.206;2022-10-31T03:47:48;28.75;;;16.50;;
36351;SDS011;22382;44.768;17.206;2022-10-31T03:50:15;26.77;;;17.85;;
36351;SDS011;22382;44.768;17.206;2022-10-31T03:55:21;25.98;;;16.95;;
36351;SDS011;22382;44.768;17.206;2022-10-31T03:58:18;25.90;;;16.88;;
36351;SDS011;22382;44.768;17.206;2022-10-31T04:00:52;26.73;;;16.70;;
36351;SDS011;22382;44.768;17.206;2022-10-31T04:03:22;31.95;;;15.80;;
36351;SDS011;22382;44.768;17.206;2022-10-31T04:05:55;24.73;;;15.68;;
36351;SDS011;22382;44.768;17.206;2022-10-31T04:08:27;24.33;;;13.65;;
36351;SDS011;22382;44.768;17.206;2022-10-31T04:10:56;23.65;;;14.75;;
36351;SDS011;22382;44.768;17.206;2022-10-31T04:13:26;20.98;;;16.08;;
36351;SDS011;22382;44.768;17.206;2022-10-31T04:15:56;28.77;;;17.45;;
36351;SDS011;22382;44.768;17.206;2022-10-31T04:18:23;24.25;;;14.73;;
36351;SDS011;22382;44.768;17.206;2022-10-31T04:20:59;23.55;;;14.20;;
36351;SDS011;22382;44.768;17.206;2022-10-31T04:23:27;27.35;;;16.58;;
36351;SDS011;22382;44.768;17.206;2022-10-31T04:25:55;26.20;;;15.93;;
36351;SDS011;22382;44.768;17.206;2022-10-31T04:28:22;24.60;;;15.35;;
36351;SDS011;22382;44.768;17.206;2022-10-31T04:30:49;19.25;;;12.30;;
36351;SDS011;22382;44.768;17.206;2022-10-31T04:33:17;23.20;;;13.02;;
36351;SDS011;22382;44.768;17.206;2022-10-31T04:35:45;17.55;;;11.75;;
36351;SDS011;22382;44.768;17.206;2022-10-31T04:38:12;22.10;;;12.30;;
36351;SDS011;22382;44.768;17.206;2022-10-31T04:40:39;20.02;;;11.70;;
36351;SDS011;22382;44.768;17.206;2022-10-31T04:43:06;17.80;;;10.85;;
36351;SDS011;22382;44.768;17.206;2022-10-31T04:45:33;18.83;;;11.32;;
36351;SDS011;22382;44.768;17.206;2022-10-31T04:48:00;19.30;;;11.60;;
36351;SDS011;22382;44.768;17.206;2022-10-31T04:50:28;27.95;;;13.68;;
36351;SDS011;22382;44.768;17.206;2022-10-31T04:52:55;19.23;;;12.38;;
36351;SDS011;22382;44.768;17.206;2022-10-31T04:55:22;23.67;;;12.98;;
36351;SDS011;22382;44.768;17.206;2022-10-31T04:57:49;19.92;;;12.50;;
36351;SDS011;22382;44.768;17.206;2022-10-31T05:00:18;23.02;;;14.82;;
36351;SDS011;22382;44.768;17.206;2022-10-31T05:02:47;23.75;;;14.80;;
36351;SDS011;22382;44.768;17.206;2022-10-31T05:05:16;23.98;;;15.95;;
36351;SDS011;22382;44.768;17.206;2022-10-31T05:07:45;20.63;;;13.65;;
36351;SDS011;22382;44.768;17.206;2022-10-31T05:10:14;22.00;;;14.20;;
36351;SDS011;22382;44.768;17.206;2022-10-31T05:15:15;24.70;;;14.77;;
36351;SDS011;22382;44.768;17.206;2022-10-31T05:17:43;25.02;;;14.40;;
36351;SDS011;22382;44.768;17.206;2022-10-31T05:20:11;24.35;;;14.30;;
36351;SDS011;22382;44.768;17.206;2022-10-31T05:22:43;20.48;;;13.80;;
36351;SDS011;22382;44.768;17.206;2022-10-31T05:25:11;24.02;;;14.43;;
36351;SDS011;22382;44.768;17.206;2022-10-31T05:27:39;21.75;;;14.45;;
36351;SDS011;22382;44.768;17.206;2022-10-31T05:30:08;21.00;;;14.70;;
36351;SDS011;22382;44.768;17.206;2022-10-31T05:35:07;22.45;;;14.68;;
36351;SDS011;22382;44.768;17.206;2022-10-31T05:37:35;22.67;;;15.25;;
36351;SDS011;22382;44.768;17.206;2022-10-31T05:40:03;20.23;;;13.80;;
36351;SDS011;22382;44.768;17.206;2022-10-31T05:42:33;25.20;;;15.52;;
36351;SDS011;22382;44.768;17.206;2022-10-31T05:45:01;23.90;;;14.82;;
36351;SDS011;22382;44.768;17.206;2022-10-31T05:47:28;24.02;;;15.10;;
36351;SDS011;22382;44.768;17.206;2022-10-31T05:49:55;27.85;;;15.52;;
36351;SDS011;22382;44.768;17.206;2022-10-31T05:52:23;17.98;;;13.85;;
36351;SDS011;22382;44.768;17.206;2022-10-31T05:54:50;22.50;;;15.05;;
36351;SDS011;22382;44.768;17.206;2022-10-31T05:57:17;26.13;;;17.15;;
36351;SDS011;22382;44.768;17.206;2022-10-31T05:59:44;28.30;;;17.20;;
36351;SDS011;22382;44.768;17.206;2022-10-31T06:02:17;56.85;;;34.58;;
36351;SDS011;22382;44.768;17.206;2022-10-31T06:04:45;57.03;;;35.00;;
36351;SDS011;22382;44.768;17.206;2022-10-31T06:07:12;35.60;;;22.73;;
36351;SDS011;22382;44.768;17.206;2022-10-31T06:09:39;36.70;;;22.95;;
36351;SDS011;22382;44.768;17.206;2022-10-31T06:12:06;31.55;;;19.98;;
36351;SDS011;22382;44.768;17.206;2022-10-31T06:14:33;31.88;;;19.95;;
36351;SDS011;22382;44.768;17.206;2022-10-31T06:17:00;29.77;;;18.35;;
36351;SDS011;22382;44.768;17.206;2022-10-31T06:19:27;37.45;;;20.35;;
36351;SDS011;22382;44.768;17.206;2022-10-31T06:21:54;36.20;;;21.67;;
36351;SDS011;22382;44.768;17.206;2022-10-31T06:24:21;29.15;;;19.00;;
36351;SDS011;22382;44.768;17.206;2022-10-31T06:26:48;30.27;;;19.25;;
36351;SDS011;22382;44.768;17.206;2022-10-31T06:29:15;36.13;;;22.65;;
36351;SDS011;22382;44.768;17.206;2022-10-31T06:31:42;43.70;;;25.27;;
36351;SDS011;22382;44.768;17.206;2022-10-31T06:34:09;36.50;;;23.83;;
36351;SDS011;22382;44.768;17.206;2022-10-31T06:36:36;35.30;;;22.83;;
36351;SDS011;22382;44.768;17.206;2022-10-31T06:39:03;33.00;;;18.40;;
36351;SDS011;22382;44.768;17.206;2022-10-31T06:41:30;28.20;;;17.98;;
36351;SDS011;22382;44.768;17.206;2022-10-31T06:43:57;33.05;;;20.58;;
36351;SDS011;22382;44.768;17.206;2022-10-31T06:46:31;28.17;;;18.58;;
36351;SDS011;22382;44.768;17.206;2022-10-31T06:48:58;71.28;;;40.28;;
36351;SDS011;22382;44.768;17.206;2022-10-31T06:51:26;42.75;;;25.15;;
36351;SDS011;22382;44.768;17.206;2022-10-31T06:53:52;35.53;;;19.15;;
36351;SDS011;22382;44.768;17.206;2022-10-31T06:56:19;29.50;;;17.88;;
36351;SDS011;22382;44.768;17.206;2022-10-31T06:58:47;36.17;;;17.83;;
36351;SDS011;22382;44.768;17.206;2022-10-31T07:01:14;26.35;;;15.88;;
36351;SDS011;22382;44.768;17.206;2022-10-31T07:03:41;24.63;;;16.25;;
36351;SDS011;22382;44.768;17.206;2022-10-31T07:06:08;25.60;;;16.02;;
36351;SDS011;22382;44.768;17.206;2022-10-31T07:08:35;28.25;;;16.35;;
36351;SDS011;22382;44.768;17.206;2022-10-31T07:11:02;23.38;;;15.02;;
36351;SDS011;22382;44.768;17.206;2022-10-31T07:13:29;23.17;;;14.57;;
36351;SDS011;22382;44.768;17.206;2022-10-31T07:16:00;26.23;;;15.70;;
36351;SDS011;22382;44.768;17.206;2022-10-31T07:18:30;26.58;;;14.65;;
36351;SDS011;22382;44.768;17.206;2022-10-31T07:20:57;24.20;;;14.75;;
36351;SDS011;22382;44.768;17.206;2022-10-31T07:23:24;21.85;;;13.80;;
36351;SDS011;22382;44.768;17.206;2022-10-31T07:25:55;27.70;;;14.55;;
36351;SDS011;22382;44.768;17.206;2022-10-31T07:28:23;26.77;;;14.93;;
36351;SDS011;22382;44.768;17.206;2022-10-31T07:30:50;26.40;;;15.30;;
36351;SDS011;22382;44.768;17.206;2022-10-31T07:33:21;21.90;;;13.63;;
36351;SDS011;22382;44.768;17.206;2022-10-31T07:35:49;22.50;;;13.85;;
36351;SDS011;22382;44.768;17.206;2022-10-31T07:38:16;21.55;;;12.70;;
36351;SDS011;22382;44.768;17.206;2022-10-31T07:40:43;30.00;;;14.43;;
36351;SDS011;22382;44.768;17.206;2022-10-31T07:43:10;24.65;;;14.07;;
36351;SDS011;22382;44.768;17.206;2022-10-31T07:45:40;24.30;;;14.80;;
36351;SDS011;22382;44.768;17.206;2022-10-31T07:48:07;27.88;;;14.23;;
36351;SDS011;22382;44.768;17.206;2022-10-31T07:50:34;24.88;;;13.45;;
36351;SDS011;22382;44.768;17.206;2022-10-31T07:53:05;26.55;;;13.30;;
36351;SDS011;22382;44.768;17.206;2022-10-31T07:55:34;21.77;;;13.63;;
36351;SDS011;22382;44.768;17.206;2022-10-31T07:58:03;26.45;;;14.95;;
36351;SDS011;22382;44.768;17.206;2022-10-31T08:00:32;23.77;;;14.73;;
36351;SDS011;22382;44.768;17.206;2022-10-31T08:03:02;24.77;;;14.98;;
36351;SDS011;22382;44.768;17.206;2022-10-31T08:05:31;29.13;;;16.85;;
36351;SDS011;22382;44.768;17.206;2022-10-31T08:07:59;28.27;;;15.82;;
36351;SDS011;22382;44.768;17.206;2022-10-31T08:10:26;24.23;;;15.07;;
36351;SDS011;22382;44.768;17.206;2022-10-31T08:12:55;27.77;;;17.10;;
36351;SDS011;22382;44.768;17.206;2022-10-31T08:15:23;22.23;;;15.00;;
36351;SDS011;22382;44.768;17.206;2022-10-31T08:17:50;20.77;;;13.57;;
36351;SDS011;22382;44.768;17.206;2022-10-31T08:20:18;29.20;;;14.23;;
36351;SDS011;22382;44.768;17.206;2022-10-31T08:22:58;31.90;;;15.35;;
36351;SDS011;22382;44.768;17.206;2022-10-31T08:25:28;28.73;;;15.23;;
36351;SDS011;22382;44.768;17.206;2022-10-31T08:28:02;24.85;;;14.02;;
36351;SDS011;22382;44.768;17.206;2022-10-31T08:30:31;23.27;;;13.88;;
36351;SDS011;22382;44.768;17.206;2022-10-31T08:33:10;21.70;;;14.40;;
36351;SDS011;22382;44.768;17.206;2022-10-31T08:35:39;24.13;;;14.48;;
36351;SDS011;22382;44.768;17.206;2022-10-31T08:38:08;24.80;;;14.20;;
36351;SDS011;22382;44.768;17.206;2022-10-31T08:40:37;24.33;;;14.52;;
36351;SDS011;22382;44.768;17.206;2022-10-31T08:43:05;22.73;;;13.35;;
36351;SDS011;22382;44.768;17.206;2022-10-31T08:45:36;35.67;;;16.80;;
36351;SDS011;22382;44.768;17.206;2022-10-31T08:48:04;29.83;;;16.10;;
36351;SDS011;22382;44.768;17.206;2022-10-31T08:50:34;35.20;;;17.48;;
36351;SDS011;22382;44.768;17.206;2022-10-31T08:53:02;46.65;;;20.25;;
36351;SDS011;22382;44.768;17.206;2022-10-31T08:55:34;49.53;;;20.85;;
36351;SDS011;22382;44.768;17.206;2022-10-31T08:58:02;38.30;;;19.15;;
36351;SDS011;22382;44.768;17.206;2022-10-31T09:00:31;38.83;;;20.23;;
36351;SDS011;22382;44.768;17.206;2022-10-31T09:03:04;49.83;;;21.88;;
36351;SDS011;22382;44.768;17.206;2022-10-31T09:05:41;41.05;;;21.50;;
36351;SDS011;22382;44.768;17.206;2022-10-31T09:08:09;40.78;;;20.95;;
36351;SDS011;22382;44.768;17.206;2022-10-31T09:10:42;39.03;;;21.30;;
36351;SDS011;22382;44.768;17.206;2022-10-31T09:13:11;54.30;;;21.85;;
36351;SDS011;22382;44.768;17.206;2022-10-31T09:15:40;44.92;;;22.23;;
36351;SDS011;22382;44.768;17.206;2022-10-31T09:18:10;34.58;;;18.50;;
36351;SDS011;22382;44.768;17.206;2022-10-31T09:20:39;42.25;;;20.70;;
36351;SDS011;22382;44.768;17.206;2022-10-31T09:23:09;37.75;;;18.48;;
36351;SDS011;22382;44.768;17.206;2022-10-31T09:25:40;37.40;;;18.00;;
36351;SDS011;22382;44.768;17.206;2022-10-31T09:28:16;30.27;;;16.25;;
36351;SDS011;22382;44.768;17.206;2022-10-31T09:30:46;29.15;;;16.50;;
36351;SDS011;22382;44.768;17.206;2022-10-31T09:33:14;28.00;;;16.20;;
36351;SDS011;22382;44.768;17.206;2022-10-31T09:35:41;29.17;;;16.70;;
36351;SDS011;22382;44.768;17.206;2022-10-31T09:38:09;30.73;;;15.85;;
36351;SDS011;22382;44.768;17.206;2022-10-31T09:40:42;30.25;;;14.73;;
36351;SDS011;22382;44.768;17.206;2022-10-31T09:46:12;27.27;;;13.13;;
36351;SDS011;22382;44.768;17.206;2022-10-31T09:54:34;27.33;;;12.70;;
36351;SDS011;22382;44.768;17.206;2022-10-31T09:57:13;23.00;;;12.40;;
36351;SDS011;22382;44.768;17.206;2022-10-31T09:59:43;29.73;;;12.90;;
36351;SDS011;22382;44.768;17.206;2022-10-31T10:02:16;25.60;;;10.15;;
36351;SDS011;22382;44.768;17.206;2022-10-31T10:04:51;19.80;;;9.43;;
36351;SDS011;22382;44.768;17.206;2022-10-31T10:10:00;30.25;;;12.52;;
36351;SDS011;22382;44.768;17.206;2022-10-31T10:26:17;33.15;;;14.32;;
36351;SDS011;22382;44.768;17.206;2022-10-31T10:28:51;30.52;;;11.57;;
36351;SDS011;22382;44.768;17.206;2022-10-31T10:31:30;24.77;;;9.75;;
36351;SDS011;22382;44.768;17.206;2022-10-31T10:36:39;14.50;;;7.78;;
36351;SDS011;22382;44.768;17.206;2022-10-31T10:42:01;15.80;;;7.72;;
36351;SDS011;22382;44.768;17.206;2022-10-31T10:44:55;14.75;;;5.95;;
36351;SDS011;22382;44.768;17.206;2022-10-31T10:47:42;17.30;;;6.47;;
36351;SDS011;22382;44.768;17.206;2022-10-31T10:55:29;19.58;;;6.93;;
36351;SDS011;22382;44.768;17.206;2022-10-31T10:58:06;21.48;;;7.20;;
36351;SDS011;22382;44.768;17.206;2022-10-31T11:00:35;20.05;;;6.97;;
36351;SDS011;22382;44.768;17.206;2022-10-31T11:03:09;17.90;;;6.60;;
36351;SDS011;22382;44.768;17.206;2022-10-31T11:05:41;17.63;;;6.90;;
36351;SDS011;22382;44.768;17.206;2022-10-31T11:08:24;19.02;;;7.90;;
36351;SDS011;22382;44.768;17.206;2022-10-31T11:13:55;21.20;;;8.48;;
36351;SDS011;22382;44.768;17.206;2022-10-31T11:16:31;18.77;;;9.60;;
36351;SDS011;22382;44.768;17.206;2022-10-31T11:19:17;15.95;;;9.15;;
36351;SDS011;22382;44.768;17.206;2022-10-31T11:21:53;20.17;;;9.70;;
36351;SDS011;22382;44.768;17.206;2022-10-31T11:24:21;23.10;;;10.15;;
36351;SDS011;22382;44.768;17.206;2022-10-31T11:27:05;19.92;;;9.18;;
36351;SDS011;22382;44.768;17.206;2022-10-31T11:29:46;24.50;;;10.15;;
36351;SDS011;22382;44.768;17.206;2022-10-31T11:34:49;28.92;;;12.45;;
36351;SDS011;22382;44.768;17.206;2022-10-31T11:37:27;28.08;;;12.60;;
36351;SDS011;22382;44.768;17.206;2022-10-31T11:39:59;34.72;;;13.18;;
36351;SDS011;22382;44.768;17.206;2022-10-31T11:42:40;24.50;;;12.88;;
36351;SDS011;22382;44.768;17.206;2022-10-31T11:45:16;41.33;;;14.43;;
36351;SDS011;22382;44.768;17.206;2022-10-31T11:47:47;27.52;;;14.50;;
36351;SDS011;22382;44.768;17.206;2022-10-31T11:52:59;21.50;;;11.55;;
36351;SDS011;22382;44.768;17.206;2022-10-31T11:55:33;23.10;;;11.38;;
36351;SDS011;22382;44.768;17.206;2022-10-31T11:58:02;19.80;;;11.10;;
36351;SDS011;22382;44.768;17.206;2022-10-31T12:00:31;18.27;;;10.23;;
36351;SDS011;22382;44.768;17.206;2022-10-31T12:05:45;24.05;;;9.77;;
36351;SDS011;22382;44.768;17.206;2022-10-31T12:08:27;25.27;;;11.23;;
36351;SDS011;22382;44.768;17.206;2022-10-31T12:14:26;21.63;;;10.45;;
36351;SDS011;22382;44.768;17.206;2022-10-31T12:16:45;21.10;;;10.45;;
36351;SDS011;22382;44.768;17.206;2022-10-31T12:34:00;26.80;;;10.55;;
36351;SDS011;22382;44.768;17.206;2022-10-31T12:37:02;21.40;;;8.98;;
36351;SDS011;22382;44.768;17.206;2022-10-31T12:48:27;17.10;;;8.82;;
36351;SDS011;22382;44.768;17.206;2022-10-31T13:00:10;19.20;;;9.15;;
36351;SDS011;22382;44.768;17.206;2022-10-31T13:02:49;22.27;;;10.20;;
36351;SDS011;22382;44.768;17.206;2022-10-31T13:08:16;24.58;;;11.00;;
36351;SDS011;22382;44.768;17.206;2022-10-31T13:10:47;26.92;;;10.65;;
36351;SDS011;22382;44.768;17.206;2022-10-31T13:18:45;27.55;;;11.73;;
36351;SDS011;22382;44.768;17.206;2022-10-31T13:24:20;23.98;;;11.90;;
36351;SDS011;22382;44.768;17.206;2022-10-31T13:26:53;24.48;;;14.02;;
36351;SDS011;22382;44.768;17.206;2022-10-31T13:29:26;20.63;;;12.40;;
36351;SDS011;22382;44.768;17.206;2022-10-31T13:32:05;25.35;;;13.02;;
36351;SDS011;22382;44.768;17.206;2022-10-31T13:34:37;28.67;;;12.27;;
36351;SDS011;22382;44.768;17.206;2022-10-31T13:45:51;22.50;;;12.60;;
36351;SDS011;22382;44.768;17.206;2022-10-31T13:48:37;23.45;;;11.45;;
36351;SDS011;22382;44.768;17.206;2022-10-31T13:51:08;25.00;;;13.27;;
36351;SDS011;22382;44.768;17.206;2022-10-31T13:53:44;25.00;;;13.63;;
36351;SDS011;22382;44.768;17.206;2022-10-31T13:56:24;22.33;;;13.77;;
36351;SDS011;22382;44.768;17.206;2022-10-31T14:01:36;28.75;;;14.30;;
36351;SDS011;22382;44.768;17.206;2022-10-31T14:04:15;34.08;;;16.08;;
36351;SDS011;22382;44.768;17.206;2022-10-31T14:12:41;29.80;;;16.42;;
36351;SDS011;22382;44.768;17.206;2022-10-31T14:15:18;31.45;;;16.00;;
36351;SDS011;22382;44.768;17.206;2022-10-31T14:20:39;25.02;;;16.55;;
36351;SDS011;22382;44.768;17.206;2022-10-31T14:23:11;24.85;;;16.17;;
36351;SDS011;22382;44.768;17.206;2022-10-31T14:28:46;26.92;;;17.35;;
36351;SDS011;22382;44.768;17.206;2022-10-31T14:50:59;25.77;;;16.45;;
36351;SDS011;22382;44.768;17.206;2022-10-31T14:56:02;25.15;;;17.73;;
36351;SDS011;22382;44.768;17.206;2022-10-31T14:58:39;28.67;;;18.73;;
36351;SDS011;22382;44.768;17.206;2022-10-31T15:01:18;32.30;;;18.75;;
36351;SDS011;22382;44.768;17.206;2022-10-31T15:03:58;30.75;;;16.63;;
36351;SDS011;22382;44.768;17.206;2022-10-31T15:07:14;29.27;;;19.42;;
36351;SDS011;22382;44.768;17.206;2022-10-31T15:09:57;29.75;;;20.23;;
36351;SDS011;22382;44.768;17.206;2022-10-31T15:14:54;34.25;;;21.20;;
36351;SDS011;22382;44.768;17.206;2022-10-31T15:17:25;34.10;;;20.05;;
36351;SDS011;22382;44.768;17.206;2022-10-31T15:19:53;31.90;;;21.67;;
36351;SDS011;22382;44.768;17.206;2022-10-31T15:22:23;30.15;;;20.65;;
36351;SDS011;22382;44.768;17.206;2022-10-31T15:24:52;31.50;;;21.55;;
36351;SDS011;22382;44.768;17.206;2022-10-31T15:27:23;30.75;;;21.90;;
36351;SDS011;22382;44.768;17.206;2022-10-31T15:29:52;41.67;;;21.88;;
36351;SDS011;22382;44.768;17.206;2022-10-31T15:32:21;30.77;;;21.20;;
36351;SDS011;22382;44.768;17.206;2022-10-31T15:34:51;36.53;;;21.45;;
36351;SDS011;22382;44.768;17.206;2022-10-31T15:37:20;36.00;;;22.13;;
36351;SDS011;22382;44.768;17.206;2022-10-31T15:39:48;34.08;;;22.63;;
36351;SDS011;22382;44.768;17.206;2022-10-31T15:42:23;27.95;;;20.38;;
36351;SDS011;22382;44.768;17.206;2022-10-31T15:45:15;35.75;;;23.27;;
36351;SDS011;22382;44.768;17.206;2022-10-31T15:47:55;34.38;;;23.48;;
36351;SDS011;22382;44.768;17.206;2022-10-31T15:53:14;36.78;;;25.30;;
36351;SDS011;22382;44.768;17.206;2022-10-31T15:55:50;34.78;;;24.55;;
36351;SDS011;22382;44.768;17.206;2022-10-31T15:58:20;38.15;;;25.95;;
36351;SDS011;22382;44.768;17.206;2022-10-31T16:01:18;38.17;;;26.23;;
36351;SDS011;22382;44.768;17.206;2022-10-31T16:04:04;39.42;;;26.05;;
36351;SDS011;22382;44.768;17.206;2022-10-31T16:06:38;38.03;;;27.90;;
36351;SDS011;22382;44.768;17.206;2022-10-31T16:09:18;43.47;;;29.52;;
36351;SDS011;22382;44.768;17.206;2022-10-31T16:11:48;55.20;;;33.50;;
36351;SDS011;22382;44.768;17.206;2022-10-31T16:14:17;61.38;;;35.72;;
36351;SDS011;22382;44.768;17.206;2022-10-31T16:16:52;55.20;;;33.00;;
36351;SDS011;22382;44.768;17.206;2022-10-31T16:19:28;47.42;;;30.42;;
36351;SDS011;22382;44.768;17.206;2022-10-31T16:22:05;51.15;;;29.40;;
36351;SDS011;22382;44.768;17.206;2022-10-31T16:25:13;46.78;;;28.73;;
36351;SDS011;22382;44.768;17.206;2022-10-31T16:27:34;46.10;;;29.05;;
36351;SDS011;22382;44.768;17.206;2022-10-31T16:30:26;56.40;;;34.58;;
36351;SDS011;22382;44.768;17.206;2022-10-31T16:32:55;58.90;;;37.65;;
36351;SDS011;22382;44.768;17.206;2022-10-31T16:38:02;83.82;;;49.30;;
36351;SDS011;22382;44.768;17.206;2022-10-31T16:40:30;101.50;;;58.17;;
36351;SDS011;22382;44.768;17.206;2022-10-31T16:42:59;144.90;;;75.90;;
36351;SDS011;22382;44.768;17.206;2022-10-31T16:45:28;115.40;;;62.30;;
36351;SDS011;22382;44.768;17.206;2022-10-31T16:48:04;116.00;;;61.63;;
36351;SDS011;22382;44.768;17.206;2022-10-31T16:50:36;117.43;;;62.72;;
36351;SDS011;22382;44.768;17.206;2022-10-31T16:53:04;114.53;;;59.33;;
36351;SDS011;22382;44.768;17.206;2022-10-31T16:56:01;114.85;;;62.15;;
36351;SDS011;22382;44.768;17.206;2022-10-31T16:58:29;83.47;;;48.95;;
36351;SDS011;22382;44.768;17.206;2022-10-31T17:01:01;79.50;;;45.65;;
36351;SDS011;22382;44.768;17.206;2022-10-31T17:03:30;113.38;;;67.15;;
36351;SDS011;22382;44.768;17.206;2022-10-31T17:05:57;87.57;;;49.92;;
36351;SDS011;22382;44.768;17.206;2022-10-31T17:08:24;79.63;;;46.08;;
36351;SDS011;22382;44.768;17.206;2022-10-31T17:10:52;75.47;;;43.75;;
36351;SDS011;22382;44.768;17.206;2022-10-31T17:13:22;80.68;;;45.35;;
36351;SDS011;22382;44.768;17.206;2022-10-31T17:15:52;81.80;;;48.22;;
36351;SDS011;22382;44.768;17.206;2022-10-31T17:18:21;79.63;;;45.75;;
36351;SDS011;22382;44.768;17.206;2022-10-31T17:21:00;82.28;;;48.60;;
36351;SDS011;22382;44.768;17.206;2022-10-31T17:23:31;82.90;;;47.17;;
36351;SDS011;22382;44.768;17.206;2022-10-31T17:25:58;76.00;;;43.13;;
36351;SDS011;22382;44.768;17.206;2022-10-31T17:28:25;65.57;;;40.47;;
36351;SDS011;22382;44.768;17.206;2022-10-31T17:30:53;70.10;;;42.53;;
36351;SDS011;22382;44.768;17.206;2022-10-31T17:33:23;68.70;;;40.28;;